This is the latest recevied weather packets stored in our database for station/object 5B4APJ-13. If no packets are shown the sender has not sent any weather packets the latest 10 day(s).
| Time | Temp. | Humidity | Pressure | Rain* | Wind** | Luminosity | Snow |
|---|---|---|---|---|---|---|---|
| 1777261630 | 14.44° C | 89% | 1012.3 hPa | 0 mm | 0.45 m/s, 149° | 46 W/m² | - |
| 1777261330 | 14.44° C | 90% | 1012.5 hPa | 0 mm | 0.45 m/s, 149° | 41 W/m² | - |
| 1777261030 | 13.89° C | 92% | 1012.3 hPa | 0 mm | 0.89 m/s, 225° | 35 W/m² | - |
| 1777260730 | 13.33° C | 91% | 1012.3 hPa | 0 mm | 0.89 m/s, 238° | 29 W/m² | - |
| 1777260430 | 13.33° C | 92% | 1012 hPa | 0 mm | 0 m/s | 23 W/m² | - |
| 1777260130 | 13.33° C | 91% | 1012 hPa | 0 mm | 0.45 m/s, 238° | 18 W/m² | - |
| 1777259830 | 13.33° C | 90% | 1012.2 hPa | 0 mm | 0.89 m/s, 234° | 13 W/m² | - |
| 1777259530 | 13.89° C | 91% | 1012.2 hPa | 0 mm | 0.45 m/s, 224° | 10 W/m² | - |
| 1777259230 | 13.89° C | 91% | 1012.3 hPa | 0 mm | 0 m/s | 6 W/m² | - |
| 1777258930 | 13.89° C | 92% | 1012.4 hPa | 0 mm | 0.45 m/s, 202° | 4 W/m² | - |
| 1777258630 | 13.89° C | 92% | 1012.2 hPa | 0 mm | 0.45 m/s, 201° | 2 W/m² | - |
| 1777258330 | 13.89° C | 92% | 1012 hPa | 0 mm | 0 m/s | 1 W/m² | - |
| 1777258030 | 13.33° C | 93% | 1012 hPa | 0 mm | 0.89 m/s, 237° | 0 W/m² | - |
| 1777257730 | 13.89° C | 92% | 1012.3 hPa | 0 mm | 0.89 m/s, 238° | 0 W/m² | - |
| 1777257430 | 13.33° C | 91% | 1011.9 hPa | 0 mm | 0.89 m/s, 243° | 0 W/m² | - |
| 1777257130 | 13.33° C | 91% | 1012 hPa | 0 mm | 0.89 m/s, 243° | 0 W/m² | - |
| 1777256830 | 14.44° C | 91% | 1012 hPa | 0 mm | 0.45 m/s, 145° | 0 W/m² | - |
| 1777256530 | 14.44° C | 92% | 1012 hPa | 0 mm | 0.45 m/s, 145° | 0 W/m² | - |
| 1777256230 | 13.89° C | 91% | 1011.9 hPa | 0 mm | 0.45 m/s, 145° | 0 W/m² | - |
| 1777255930 | 14.44° C | 91% | 1011.9 hPa | 0 mm | 0.45 m/s, 145° | 0 W/m² | - |
| 1777255630 | 14.44° C | 91% | 1011.9 hPa | 0 mm | 0 m/s | 0 W/m² | - |
| 1777255330 | 14.44° C | 91% | 1011.8 hPa | 0 mm | 0 m/s | 0 W/m² | - |
| 1777255031 | 13.89° C | 91% | 1011.8 hPa | 0 mm | 0.45 m/s, 144° | 0 W/m² | - |
| 1777254730 | 13.89° C | 91% | 1011.8 hPa | 0 mm | 0.45 m/s, 143° | 0 W/m² | - |
| 1777254430 | 13.89° C | 91% | 1011.9 hPa | 0 mm | 0 m/s | 0 W/m² | - |
* Rain latest hour (hover to see other rain measurements)
** Current wind speed in m/s (hover to see current wind gust speed)